Lisse — V7SE2 — position and weather

sailwx.info

Track history (hours):
 
Tides and Currents Weather Stations Pressure Air Temp Water Temp Dewpoint Dewpoint Depression Visibility Wind Speed Wind Dir Waves Ship Positions

Lisse

Last reported at 2017-Dec-11 17:00 UTC. Time now 2017-Dec-12 15:52 UTC.
Position N 40°48' E 029°07'.

Length 128 m; draft 5 m.

Type: Tanker. MMSI: 538003630.

Date/timePositionNaut miles runAvg speedWind from/ knotsBaromVisibWave heightAir tempDewpointWater temp
2017-Dec-11 17:00N 40°48' E 029°07'4 8.2
2017-Dec-11 16:30N 40°46' E 029°12'5 9.2
2017-Dec-11 16:00N 40°43' E 029°17'3 6.0
2017-Dec-11 15:30N 40°41' E 029°20'2 4.8
2017-Dec-11 15:00N 40°42' E 029°17'1 1.7
2017-Dec-11 14:30N 40°42' E 029°18'3 6.3
2017-Dec-11 14:00N 40°44' E 029°21'5 9.3
2017-Dec-11 13:29N 40°45' E 029°27'2 0.3
2017-Dec-11 05:41N 40°44' E 029°30'0 0.0
2017-Dec-11 05:29N 40°44' E 029°30'0 0.0
2017-Dec-11 03:59N 40°44' E 029°30'0 0.0
2017-Dec-11 03:29N 40°44' E 029°30'0 0.0
2017-Dec-10 21:59N 40°44' E 029°30'0 0.0
2017-Dec-10 21:29N 40°44' E 029°30'0 0.0
2017-Dec-10 06:35N 40°44' E 029°30'0 0.0
2017-Dec-10 06:11N 40°44' E 029°30'0 0.0
2017-Dec-10 05:53N 40°44' E 029°30'0 0.0
2017-Dec-10 02:53N 40°44' E 029°30'0 0.0
2017-Dec-09 22:59N 40°44' E 029°30'0 0.0
2017-Dec-09 22:17N 40°44' E 029°30'0 0.0
2017-Dec-09 17:53N 40°44' E 029°30'  
Track history (hours):
 
Tides and Currents Weather Stations Pressure Air Temp Water Temp Dewpoint Dewpoint Depression Visibility Wind Speed Wind Dir Waves Ship Positions

Lisse

Last reported at 2017-Dec-11 17:00 UTC. Time now 2017-Dec-12 15:52 UTC.
Position N 40°48' E 029°07'.

Length 128 m; draft 5 m.

Type: Tanker. MMSI: 538003630.

Date/timePositionNaut miles runAvg speedWind from/ knotsBaromVisibWave heightAir tempDewpointWater temp
2017-Dec-11 17:00N 40°48' E 029°07'4 8.2
2017-Dec-11 16:30N 40°46' E 029°12'5 9.2
2017-Dec-11 16:00N 40°43' E 029°17'3 6.0
2017-Dec-11 15:30N 40°41' E 029°20'2 4.8
2017-Dec-11 15:00N 40°42' E 029°17'1 1.7
2017-Dec-11 14:30N 40°42' E 029°18'3 6.3
2017-Dec-11 14:00N 40°44' E 029°21'5 9.3
2017-Dec-11 13:29N 40°45' E 029°27'2 0.3
2017-Dec-11 05:41N 40°44' E 029°30'0 0.0
2017-Dec-11 05:29N 40°44' E 029°30'0 0.0
2017-Dec-11 03:59N 40°44' E 029°30'0 0.0
2017-Dec-11 03:29N 40°44' E 029°30'0 0.0
2017-Dec-10 21:59N 40°44' E 029°30'0 0.0
2017-Dec-10 21:29N 40°44' E 029°30'0 0.0
2017-Dec-10 06:35N 40°44' E 029°30'0 0.0
2017-Dec-10 06:11N 40°44' E 029°30'0 0.0
2017-Dec-10 05:53N 40°44' E 029°30'0 0.0
2017-Dec-10 02:53N 40°44' E 029°30'0 0.0
2017-Dec-09 22:59N 40°44' E 029°30'0 0.0
2017-Dec-09 22:17N 40°44' E 029°30'0 0.0
2017-Dec-09 17:53N 40°44' E 029°30'  

Dump ship's entire track history